Time;durP1;ratioP1;P1;durP2;ratioP2;P2;SDS_P1;SDS_P2;PMS_P1;PMS_P2;Temp;Humidity;BMP_temperature;BMP_pressure;BME280_temperature;BME280_humidity;BME280_pressure;Samples;Min_cycle;Max_cycle;Signal;HPM_P1;HPM_P2
2022/12/08 00:00:37;;;;;;;28.20;17.03;;;;;;;1.41;100.00;100763.72;5009362;28;20289;-73
2022/12/08 00:03:03;;;;;;;31.70;18.13;;;;;;;1.40;100.00;100758.56;5023100;28;20195;-73
2022/12/08 00:10:56;;;;;;;35.70;18.50;;;;;;;1.41;100.00;100755.25;5007915;28;20251;-73
2022/12/08 00:13:22;;;;;;;33.10;18.07;;;;;;;1.42;100.00;100746.94;5009879;28;20222;-72
2022/12/08 00:15:47;;;;;;;34.27;18.97;;;;;;;1.41;100.00;100748.56;5002022;28;20572;-72
2022/12/08 00:18:13;;;;;;;34.97;20.00;;;;;;;1.41;100.00;100745.19;5010053;28;20198;-72
2022/12/08 00:20:39;;;;;;;34.50;19.10;;;;;;;1.40;100.00;100735.88;5007013;28;20207;-73
2022/12/08 00:23:04;;;;;;;35.30;20.23;;;;;;;1.45;100.00;100734.47;5009470;28;20194;-73
2022/12/08 00:25:31;;;;;;;37.20;20.20;;;;;;;1.43;100.00;100736.06;5010057;28;20183;-72
2022/12/08 00:27:56;;;;;;;35.67;19.00;;;;;;;1.45;100.00;100735.34;5011699;28;20195;-73
2022/12/08 00:30:22;;;;;;;34.10;20.00;;;;;;;1.45;100.00;100725.25;5006473;28;20226;-73
2022/12/08 00:32:47;;;;;;;32.07;19.17;;;;;;;1.42;100.00;100724.25;5011182;28;20567;-72
2022/12/08 00:35:13;;;;;;;32.43;19.17;;;;;;;1.45;100.00;100724.38;5012367;28;20807;-72
2022/12/08 00:37:38;;;;;;;36.90;20.93;;;;;;;1.45;100.00;100720.22;5007733;28;20672;-73
2022/12/08 00:40:04;;;;;;;37.17;20.03;;;;;;;1.44;100.00;100721.00;5007399;28;20265;-73
2022/12/08 00:42:30;;;;;;;32.80;20.17;;;;;;;1.46;100.00;100718.56;5007298;28;20552;-72
2022/12/08 00:44:55;;;;;;;33.37;19.13;;;;;;;1.43;100.00;100708.31;5008229;28;20265;-72
2022/12/08 00:47:21;;;;;;;33.33;19.10;;;;;;;1.45;100.00;100714.28;5002727;28;20241;-73
2022/12/08 00:49:46;;;;;;;34.60;19.67;;;;;;;1.47;100.00;100706.03;5005077;28;20183;-72
2022/12/08 00:52:12;;;;;;;34.47;19.63;;;;;;;1.49;100.00;100701.94;5005886;28;20700;-73
2022/12/08 00:54:37;;;;;;;31.40;18.20;;;;;;;1.47;100.00;100692.56;5009007;28;20326;-73
2022/12/08 00:57:03;;;;;;;33.27;18.20;;;;;;;1.46;100.00;100689.16;5010649;28;20218;-73
2022/12/08 00:59:28;;;;;;;31.43;18.87;;;;;;;1.49;100.00;100689.34;5005120;28;20257;-73
2022/12/08 01:01:54;;;;;;;34.33;18.13;;;;;;;1.47;100.00;100687.53;5003400;28;20203;-73
2022/12/08 01:04:20;;;;;;;29.73;18.80;;;;;;;1.50;100.00;100693.59;5009557;28;20609;-73
2022/12/08 01:06:46;;;;;;;31.93;18.10;;;;;;;1.52;100.00;100691.16;5010384;28;20196;-73
2022/12/08 01:09:13;;;;;;;30.60;18.23;;;;;;;1.53;100.00;100683.66;5007295;28;20190;-73
2022/12/08 01:11:39;;;;;;;28.23;16.87;;;;;;;1.55;100.00;100679.56;5010342;28;20207;-73
2022/12/08 01:14:04;;;;;;;31.47;17.57;;;;;;;1.56;100.00;100678.75;5007282;28;20219;-72
2022/12/08 01:16:33;;;;;;;32.13;18.37;;;;;;;1.56;100.00;100683.81;5006293;28;20238;-73
2022/12/08 01:18:58;;;;;;;29.87;17.43;;;;;;;1.60;100.00;100682.31;5005830;28;20183;-73
2022/12/08 01:21:25;;;;;;;27.47;17.03;;;;;;;1.59;100.00;100683.97;5009673;28;20250;-72
2022/12/08 01:23:50;;;;;;;29.03;18.30;;;;;;;1.62;100.00;100684.13;5007277;28;20325;-73
2022/12/08 01:26:17;;;;;;;32.87;18.10;;;;;;;1.63;100.00;100680.81;5006942;28;20199;-73
2022/12/08 01:28:43;;;;;;;32.20;18.03;;;;;;;1.64;100.00;100687.59;5004515;28;20266;-73
2022/12/08 01:31:12;;;;;;;30.93;18.00;;;;;;;1.67;100.00;100687.75;5005750;28;20257;-73
2022/12/08 01:33:37;;;;;;;29.47;17.77;;;;;;;1.71;100.00;100681.22;5004010;28;20211;-73
2022/12/08 01:36:04;;;;;;;31.70;18.57;;;;;;;1.74;100.00;100671.28;5008801;28;20270;-73
2022/12/08 01:38:30;;;;;;;31.70;17.83;;;;;;;1.78;100.00;100670.63;5004242;28;20548;-73
2022/12/08 01:40:56;;;;;;;31.00;18.80;;;;;;;1.82;100.00;100665.81;5012951;28;20210;-73
2022/12/08 01:43:21;;;;;;;32.87;18.20;;;;;;;1.87;100.00;100666.03;5006198;28;20230;-73
2022/12/08 01:45:47;;;;;;;29.43;17.67;;;;;;;1.90;100.00;100661.16;5009886;28;20241;-73
2022/12/08 01:48:39;;;;;;;29.70;18.30;;;;;;;1.93;100.00;100664.69;5008111;28;20198;-73
2022/12/08 01:51:05;;;;;;;30.77;18.40;;;;;;;1.95;100.00;100655.56;5008450;28;20273;-73
2022/12/08 01:53:31;;;;;;;29.57;19.37;;;;;;;1.99;100.00;100659.09;5005411;28;20281;-73
2022/12/08 01:56:07;;;;;;;28.37;19.10;;;;;;;2.00;100.00;100654.13;5004308;28;20221;-73
2022/12/08 01:58:40;;;;;;;29.77;20.07;;;;;;;2.03;100.00;100655.94;5004743;28;20182;-73
2022/12/08 02:01:06;;;;;;;32.23;19.97;;;;;;;2.05;100.00;100651.81;5005084;28;20219;-73
2022/12/08 02:03:40;;;;;;;27.73;18.97;;;;;;;2.07;100.00;100656.16;5009685;28;20198;-73
2022/12/08 02:06:07;;;;;;;30.27;18.97;;;;;;;2.10;100.00;100655.44;5006916;28;20222;-73
2022/12/08 02:08:34;;;;;;;29.97;18.77;;;;;;;2.12;100.00;100653.88;5009662;28;20694;-73
2022/12/08 02:11:00;;;;;;;29.33;18.83;;;;;;;2.13;100.00;100655.59;5012726;28;20215;-73
2022/12/08 02:13:26;;;;;;;27.97;18.83;;;;;;;2.15;100.00;100642.25;5006259;28;20562;-73
2022/12/08 02:16:29;;;;;;;30.13;20.10;;;;;;;2.15;100.00;100648.97;5007281;28;20218;-73
2022/12/08 02:19:20;;;;;;;28.60;18.70;;;;;;;2.14;100.00;100640.53;5021728;28;20194;-73
2022/12/08 02:22:00;;;;;;;25.83;18.00;;;;;;;2.10;100.00;100635.25;5009121;28;20256;-73
2022/12/08 02:24:35;;;;;;;30.67;19.20;;;;;;;2.09;100.00;100629.34;5011590;28;20202;-73
2022/12/08 02:27:28;;;;;;;26.80;18.43;;;;;;;2.11;100.00;100627.75;5006858;28;20272;-73
2022/12/08 02:30:12;;;;;;;28.77;17.30;;;;;;;2.14;100.00;100625.38;5008499;28;20205;-74
2022/12/08 02:32:46;;;;;;;26.20;18.53;;;;;;;2.15;100.00;100627.09;5007874;28;20266;-73
2022/12/08 02:35:20;;;;;;;26.83;18.63;;;;;;;2.18;100.00;100617.16;5005151;28;20672;-72
2022/12/08 02:37:51;;;;;;;28.10;18.30;;;;;;;2.22;100.00;100619.06;5005195;28;20219;-73
2022/12/08 02:40:45;;;;;;;30.17;17.97;;;;;;;2.21;100.00;100614.78;5008945;28;20222;-72
2022/12/08 02:43:26;;;;;;;24.17;16.97;;;;;;;2.18;100.00;100609.59;4996031;28;20218;-72
2022/12/08 02:46:07;;;;;;;26.83;18.37;;;;;;;2.18;100.00;100612.13;5006870;28;20186;-73
2022/12/08 02:48:33;;;;;;;28.07;17.17;;;;;;;2.19;100.00;100601.22;5003907;28;20195;-73
2022/12/08 02:50:58;;;;;;;23.23;16.70;;;;;;;2.20;100.00;100604.63;5008524;28;20239;-73
2022/12/08 02:53:26;;;;;;;27.60;17.83;;;;;;;2.21;100.00;100612.25;5011804;28;20234;-72
2022/12/08 02:56:09;;;;;;;25.60;16.33;;;;;;;2.24;100.00;100611.53;5012060;28;20634;-72
2022/12/08 02:58:56;;;;;;;23.43;16.67;;;;;;;2.26;100.00;100607.44;5016273;28;20223;-72
2022/12/08 03:01:31;;;;;;;24.03;16.70;;;;;;;2.27;100.00;100597.41;5012182;28;20214;-72
2022/12/08 03:04:20;;;;;;;27.57;16.77;;;;;;;2.31;100.00;100595.88;5008968;28;20194;-72
2022/12/08 03:06:57;;;;;;;29.03;15.97;;;;;;;2.33;100.00;100584.19;5008086;28;20211;-72
2022/12/08 03:09:44;;;;;;;24.60;15.80;;;;;;;2.33;100.00;100594.28;5012397;28;20818;-72
2022/12/08 03:12:27;;;;;;;24.80;16.43;;;;;;;2.34;100.00;100586.78;5005552;28;20566;-72
2022/12/08 03:14:56;;;;;;;29.10;16.40;;;;;;;2.34;100.00;100579.22;5008445;28;20194;-71
2022/12/08 03:17:27;;;;;;;25.20;16.10;;;;;;;2.35;100.00;100575.03;5008810;28;20233;-72
2022/12/08 03:19:53;;;;;;;25.90;15.97;;;;;;;2.37;100.00;100575.97;5008776;28;20191;-72
2022/12/08 03:22:22;;;;;;;25.17;16.07;;;;;;;2.37;100.00;100569.25;5010478;28;20558;-72
2022/12/08 03:24:48;;;;;;;27.13;15.33;;;;;;;2.38;100.00;100568.47;5010150;28;20672;-72
2022/12/08 03:27:18;;;;;;;21.83;15.43;;;;;;;2.39;100.00;100561.75;5007727;28;20195;-72
2022/12/08 03:29:46;;;;;;;23.67;15.20;;;;;;;2.41;100.00;100563.56;5005731;28;20656;-73
2022/12/08 03:32:46;;;;;;;22.53;15.10;;;;;;;2.44;100.00;100555.25;5010646;28;20211;-73
2022/12/08 03:35:21;;;;;;;23.07;13.97;;;;;;;2.46;100.00;100556.19;5008255;28;20231;-72
2022/12/08 03:37:46;;;;;;;23.73;14.40;;;;;;;2.46;100.00;100558.72;5003003;28;20214;-72
2022/12/08 03:40:15;;;;;;;22.63;15.40;;;;;;;2.46;100.00;100561.22;5005667;28;20222;-72
2022/12/08 03:42:40;;;;;;;21.73;14.13;;;;;;;2.48;100.00;100564.72;5004482;28;20210;-72
2022/12/08 03:45:06;;;;;;;21.57;13.90;;;;;;;2.49;100.00;100561.38;5006871;28;20187;-72
2022/12/08 03:47:32;;;;;;;18.37;13.00;;;;;;;2.49;100.00;100549.59;5006912;28;20707;-72
2022/12/08 03:49:57;;;;;;;22.63;14.83;;;;;;;2.48;100.00;100547.88;5023427;28;21784;-72
2022/12/08 03:52:23;;;;;;;20.57;14.90;;;;;;;2.50;100.00;100548.84;5007621;28;20238;-72
2022/12/08 03:54:48;;;;;;;20.00;13.90;;;;;;;2.50;100.00;100548.84;5008214;28;20187;-73
2022/12/08 03:57:13;;;;;;;19.63;14.40;;;;;;;2.51;100.00;100545.50;5006578;28;20219;-73
2022/12/08 03:59:39;;;;;;;19.70;14.80;;;;;;;2.52;100.00;100543.84;5006776;28;20330;-72
2022/12/08 04:02:04;;;;;;;20.70;14.27;;;;;;;2.52;100.00;100534.59;5005934;28;20219;-72
2022/12/08 04:04:30;;;;;;;20.03;14.13;;;;;;;2.52;100.00;100534.59;5011854;28;20231;-73
2022/12/08 04:06:55;;;;;;;18.67;14.03;;;;;;;2.53;100.00;100531.28;5010606;28;20210;-73
2022/12/08 04:09:21;;;;;;;20.40;15.00;;;;;;;2.51;100.00;100526.94;5008050;28;20197;-73
2022/12/08 04:11:47;;;;;;;20.57;13.57;;;;;;;2.52;100.00;100531.22;5007146;28;20719;-73
2022/12/08 04:14:12;;;;;;;17.27;13.70;;;;;;;2.51;100.00;100529.47;5009291;28;20187;-73
2022/12/08 04:16:38;;;;;;;21.30;14.87;;;;;;;2.52;100.00;100528.69;5004634;28;20593;-72
2022/12/08 04:19:03;;;;;;;18.20;13.77;;;;;;;2.52;100.00;100521.97;5011274;28;20199;-72
2022/12/08 04:21:29;;;;;;;21.87;14.40;;;;;;;2.53;100.00;100525.38;5010479;28;20225;-72
2022/12/08 04:23:54;;;;;;;16.33;12.27;;;;;;;2.55;100.00;100531.34;5016211;28;20202;-72
2022/12/08 04:26:19;;;;;;;16.53;12.80;;;;;;;2.54;100.00;100534.66;5010148;28;21148;-72
2022/12/08 04:28:45;;;;;;;16.57;12.20;;;;;;;2.55;100.00;100536.41;5010638;28;20339;-73
2022/12/08 04:31:10;;;;;;;15.50;12.30;;;;;;;2.57;100.00;100543.25;5009864;28;20211;-73
2022/12/08 04:33:36;;;;;;;15.27;11.73;;;;;;;2.55;100.00;100534.75;5011485;28;20191;-72
2022/12/08 04:36:03;;;;;;;17.83;11.10;;;;;;;2.56;100.00;100535.59;5010870;28;20302;-72
2022/12/08 04:38:29;;;;;;;15.33;11.77;;;;;;;2.55;100.00;100538.94;5011083;28;20205;-72
2022/12/08 04:40:54;;;;;;;13.27;10.83;;;;;;;2.53;100.00;100541.38;5009777;28;20211;-72
2022/12/08 04:43:20;;;;;;;14.60;11.03;;;;;;;2.53;100.00;100535.47;5016403;28;20227;-72
2022/12/08 04:45:46;;;;;;;14.23;10.50;;;;;;;2.50;100.00;100528.63;5013805;28;20912;-72
2022/12/08 04:48:12;;;;;;;15.17;11.23;;;;;;;2.48;100.00;100526.81;5007444;28;20211;-72
2022/12/08 04:50:42;;;;;;;13.67;10.80;;;;;;;2.45;100.00;100532.59;5009738;28;20215;-72
2022/12/08 04:53:10;;;;;;;14.53;10.37;;;;;;;2.48;100.00;100529.34;5006285;28;20206;-72
2022/12/08 04:55:43;;;;;;;12.70;10.30;;;;;;;2.44;100.00;100530.84;5007466;28;20195;-71
2022/12/08 04:58:14;;;;;;;16.47;12.00;;;;;;;2.44;100.00;100530.00;5004275;28;20286;-71
2022/12/08 05:00:40;;;;;;;14.30;11.30;;;;;;;2.36;100.00;100532.19;5008216;28;20632;-72
2022/12/08 05:03:05;;;;;;;17.23;12.57;;;;;;;2.35;100.00;100522.84;5008372;28;20202;-71
2022/12/08 05:05:31;;;;;;;17.07;12.80;;;;;;;2.37;100.00;100523.78;5004476;28;20725;-71
2022/12/08 05:07:56;;;;;;;17.87;11.90;;;;;;;2.33;100.00;100526.97;5011444;28;20179;-72
2022/12/08 05:10:21;;;;;;;15.40;12.90;;;;;;;2.33;100.00;100534.56;5004230;28;20223;-72
2022/12/08 05:12:47;;;;;;;15.57;12.13;;;;;;;2.36;100.00;100521.19;5006948;28;20206;-72
2022/12/08 05:15:12;;;;;;;15.10;12.43;;;;;;;2.35;100.00;100525.38;5010578;28;20222;-72
2022/12/08 05:17:38;;;;;;;16.13;12.67;;;;;;;2.32;100.00;100521.84;5009683;28;20211;-72
2022/12/08 05:20:04;;;;;;;15.73;12.63;;;;;;;2.30;100.00;100509.13;5008689;28;20689;-71
2022/12/08 05:22:30;;;;;;;15.77;12.13;;;;;;;2.32;100.00;100507.56;4997833;28;20188;-71
2022/12/08 05:24:55;;;;;;;16.20;13.03;;;;;;;2.27;100.00;100505.63;4998341;28;20738;-74
2022/12/08 05:27:20;;;;;;;15.63;11.63;;;;;;;2.25;100.00;100504.69;5003470;28;20226;-73
2022/12/08 05:29:47;;;;;;;14.57;11.83;;;;;;;2.24;100.00;100515.56;5002945;28;20287;-72
2022/12/08 05:32:13;;;;;;;14.83;11.70;;;;;;;2.23;100.00;100506.25;5002419;28;20215;-73
2022/12/08 05:34:38;;;;;;;13.70;11.30;;;;;;;2.22;100.00;100513.00;5003253;28;20199;-73
2022/12/08 05:37:03;;;;;;;13.00;11.33;;;;;;;2.24;100.00;100520.63;5010937;28;20219;-73
2022/12/08 05:39:29;;;;;;;14.03;11.17;;;;;;;2.26;100.00;100522.41;5002733;28;20229;-72
2022/12/08 05:41:55;;;;;;;13.63;11.83;;;;;;;2.29;100.00;100515.00;5000077;28;20227;-73
2022/12/08 05:44:20;;;;;;;13.07;10.80;;;;;;;2.31;100.00;100517.59;5005812;28;20558;-72
2022/12/08 05:46:46;;;;;;;12.63;10.83;;;;;;;2.30;100.00;100519.25;4997937;28;20218;-73
2022/12/08 05:49:11;;;;;;;13.27;10.17;;;;;;;2.31;100.00;100510.91;5001829;28;20690;-73
2022/12/08 05:51:36;;;;;;;13.17;10.70;;;;;;;2.28;100.00;100512.38;5003353;28;20218;-73
2022/12/08 05:54:02;;;;;;;12.03;9.40;;;;;;;2.30;100.00;100511.66;5001692;28;20199;-72
2022/12/08 05:56:27;;;;;;;12.80;10.17;;;;;;;2.30;100.00;100510.81;5001946;28;20211;-73
2022/12/08 05:58:53;;;;;;;12.50;9.73;;;;;;;2.31;100.00;100512.53;5006152;28;20197;-72
2022/12/08 06:01:21;;;;;;;13.70;10.30;;;;;;;2.28;100.00;100510.75;5009745;28;20217;-72
2022/12/08 06:03:46;;;;;;;13.17;10.63;;;;;;;2.30;100.00;100516.72;5009583;28;20205;-72
2022/12/08 06:06:12;;;;;;;11.53;9.80;;;;;;;2.28;100.00;100508.22;5000768;28;20184;-71
2022/12/08 06:08:37;;;;;;;11.50;9.60;;;;;;;2.27;100.00;100506.50;5003416;28;20278;-72
2022/12/08 06:11:03;;;;;;;11.13;8.47;;;;;;;2.29;100.00;100509.94;5016127;28;20218;-72
2022/12/08 06:13:28;;;;;;;11.10;8.93;;;;;;;2.31;100.00;100504.97;5000939;28;20241;-72
2022/12/08 06:15:53;;;;;;;11.13;9.10;;;;;;;2.33;100.00;100513.47;5004210;28;20289;-72
2022/12/08 06:18:19;;;;;;;8.97;7.83;;;;;;;2.32;100.00;100520.19;5003332;28;20648;-73
2022/12/08 06:20:44;;;;;;;8.10;7.17;;;;;;;2.36;100.00;100526.25;5005625;28;20215;-73
2022/12/08 06:23:10;;;;;;;8.43;7.17;;;;;;;2.36;100.00;100534.69;5003477;28;20198;-73
2022/12/08 06:25:35;;;;;;;7.90;6.73;;;;;;;2.38;100.00;100529.69;5004015;28;20282;-73
2022/12/08 06:28:04;;;;;;;9.10;6.77;;;;;;;2.38;100.00;100525.53;5007071;28;20191;-72
2022/12/08 06:30:29;;;;;;;8.13;6.63;;;;;;;2.37;100.00;100522.91;5011355;28;20219;-72
2022/12/08 06:32:54;;;;;;;8.50;7.03;;;;;;;2.34;100.00;100533.75;5009889;28;20202;-72
2022/12/08 06:35:20;;;;;;;7.70;6.50;;;;;;;2.35;100.00;100537.16;5019785;28;20198;-73
2022/12/08 06:37:45;;;;;;;8.30;6.50;;;;;;;2.36;100.00;100539.75;5004216;28;20210;-73
2022/12/08 06:40:11;;;;;;;8.03;6.93;;;;;;;2.39;100.00;100533.97;5009942;28;20199;-72
2022/12/08 06:42:42;;;;;;;8.40;7.47;;;;;;;2.38;100.00;100529.69;5013709;28;20233;-73
2022/12/08 06:45:08;;;;;;;8.27;7.23;;;;;;;2.39;100.00;100534.81;5013219;28;20197;-73
2022/12/08 06:47:34;;;;;;;8.00;6.57;;;;;;;2.38;100.00;100530.56;5013368;28;20198;-74
2022/12/08 06:49:59;;;;;;;6.83;6.13;;;;;;;2.38;100.00;100532.22;5013370;28;20263;-72
2022/12/08 06:52:25;;;;;;;7.57;6.53;;;;;;;2.38;100.00;100532.22;5012337;28;20203;-73
2022/12/08 06:54:50;;;;;;;7.33;6.30;;;;;;;2.37;100.00;100531.38;5013337;28;20194;-73
2022/12/08 06:57:17;;;;;;;7.20;6.23;;;;;;;2.36;100.00;100536.34;5011530;28;20277;-72
2022/12/08 06:59:43;;;;;;;6.93;6.03;;;;;;;2.37;100.00;100536.44;5011467;28;20195;-71
2022/12/08 07:02:09;;;;;;;6.97;6.07;;;;;;;2.38;100.00;100532.22;5012868;28;20556;-72
2022/12/08 07:04:34;;;;;;;8.47;6.53;;;;;;;2.40;100.00;100550.84;5012391;28;20179;-73
2022/12/08 07:07:00;;;;;;;7.40;6.37;;;;;;;2.40;100.00;100546.69;5012203;28;20683;-73
2022/12/08 07:09:25;;;;;;;7.00;5.93;;;;;;;2.41;100.00;100538.31;5013145;28;20197;-73
2022/12/08 07:11:51;;;;;;;9.00;6.53;;;;;;;2.43;100.00;100546.81;5012691;28;20225;-73
2022/12/08 07:14:16;;;;;;;7.53;6.37;;;;;;;2.44;100.00;100551.06;5012929;28;20225;-72
2022/12/08 07:16:41;;;;;;;7.83;7.03;;;;;;;2.44;100.00;100547.69;5012744;28;20289;-72
2022/12/08 07:19:07;;;;;;;7.73;6.47;;;;;;;2.42;100.00;100546.72;5010497;28;20197;-72
2022/12/08 07:21:32;;;;;;;7.87;6.90;;;;;;;2.42;100.00;100555.19;5010503;28;20222;-73
2022/12/08 07:23:58;;;;;;;8.77;7.30;;;;;;;2.46;100.00;100553.66;5012754;28;20183;-73
2022/12/08 07:26:24;;;;;;;8.77;7.57;;;;;;;2.45;100.00;100564.56;5012640;28;20199;-72
2022/12/08 07:28:49;;;;;;;8.87;6.87;;;;;;;2.45;100.00;100567.09;5011387;28;20187;-72
2022/12/08 07:31:23;;;;;;;9.53;7.73;;;;;;;2.46;100.00;100571.34;5011608;28;20718;-70
2022/12/08 07:33:49;;;;;;;11.13;8.00;;;;;;;2.45;100.00;100560.38;5010135;28;20232;-72
2022/12/08 07:36:15;;;;;;;11.73;9.17;;;;;;;2.44;100.00;100558.63;5009394;28;20238;-72
2022/12/08 07:38:41;;;;;;;12.03;9.13;;;;;;;2.46;100.00;100562.13;5007181;28;20226;-72
2022/12/08 07:41:11;;;;;;;11.63;9.20;;;;;;;2.41;100.00;100557.63;5009824;28;20237;-71
2022/12/08 07:43:37;;;;;;;13.17;10.20;;;;;;;2.36;100.00;100559.97;5008974;28;20207;-71
2022/12/08 07:46:02;;;;;;;11.17;8.67;;;;;;;2.28;100.00;100556.19;5009312;28;20236;-71
2022/12/08 07:48:28;;;;;;;10.97;8.67;;;;;;;2.25;100.00;100560.25;5012438;28;20191;-71
2022/12/08 07:51:00;;;;;;;10.20;8.17;;;;;;;2.18;100.00;100558.22;5012204;28;20699;-71
2022/12/08 07:53:25;;;;;;;8.90;7.40;;;;;;;2.19;100.00;100553.25;5006208;28;20245;-74
2022/12/08 07:55:51;;;;;;;10.23;7.90;;;;;;;2.21;100.00;100546.59;5010863;28;20199;-74
2022/12/08 07:58:16;;;;;;;11.30;7.87;;;;;;;2.24;100.00;100550.91;4994627;28;20218;-73
2022/12/08 08:00:41;;;;;;;9.77;7.77;;;;;;;2.24;100.00;100550.91;5015072;28;20697;-72
2022/12/08 08:03:10;;;;;;;9.50;7.73;;;;;;;2.25;100.00;100548.47;5006186;28;20199;-72
2022/12/08 08:05:35;;;;;;;10.47;8.40;;;;;;;2.29;100.00;100557.06;5005007;28;20663;-73
2022/12/08 08:08:00;;;;;;;9.33;7.70;;;;;;;2.27;100.00;100554.47;5002708;28;20188;-72
2022/12/08 08:10:26;;;;;;;9.10;7.17;;;;;;;2.30;100.00;100558.81;5005399;28;20245;-72
2022/12/08 08:12:51;;;;;;;9.47;7.50;;;;;;;2.33;100.00;100556.41;5003463;28;20188;-72
2022/12/08 08:15:19;;;;;;;8.07;7.20;;;;;;;2.30;100.00;100566.38;5007195;28;20569;-73
2022/12/08 08:17:48;;;;;;;10.20;8.40;;;;;;;2.21;100.00;100569.31;5004547;28;20281;-72
2022/12/08 08:20:14;;;;;;;10.77;9.33;;;;;;;2.16;100.00;100570.75;5002113;28;20215;-73
2022/12/08 08:22:39;;;;;;;11.83;9.87;;;;;;;2.11;100.00;100577.25;5000297;28;20188;-73
2022/12/08 08:25:05;;;;;;;13.33;10.57;;;;;;;2.08;100.00;100577.13;5002875;28;20192;-74
2022/12/08 08:27:30;;;;;;;13.57;10.63;;;;;;;2.09;100.00;100570.41;5015584;28;20201;-73
2022/12/08 08:29:56;;;;;;;13.90;11.50;;;;;;;2.04;100.00;100577.75;5003081;28;20192;-73
2022/12/08 08:32:21;;;;;;;15.27;12.20;;;;;;;2.01;100.00;100585.19;5011193;28;20194;-72
2022/12/08 08:34:46;;;;;;;17.17;13.10;;;;;;;2.05;100.00;100583.66;5011568;28;20195;-71
2022/12/08 08:37:12;;;;;;;17.53;13.00;;;;;;;2.05;100.00;100582.00;5011230;28;20345;-73
2022/12/08 08:39:37;;;;;;;16.53;12.73;;;;;;;2.03;100.00;100583.63;5005168;28;20559;-72
2022/12/08 08:42:03;;;;;;;18.13;14.00;;;;;;;2.20;100.00;100579.38;5003350;28;20230;-73
2022/12/08 08:44:28;;;;;;;17.67;13.70;;;;;;;2.13;100.00;100584.91;5005129;28;20195;-73
2022/12/08 08:46:54;;;;;;;17.77;13.67;;;;;;;2.16;100.00;100580.00;5004249;28;20188;-73
2022/12/08 08:49:20;;;;;;;18.00;13.63;;;;;;;2.16;100.00;100580.84;4990333;28;20233;-73
2022/12/08 08:51:45;;;;;;;20.93;15.00;;;;;;;2.11;100.00;100569.69;5002902;28;20294;-72
2022/12/08 08:54:11;;;;;;;23.10;14.77;;;;;;;2.05;100.00;100583.66;5003352;28;20378;-72
2022/12/08 08:56:36;;;;;;;21.63;15.00;;;;;;;2.04;100.00;100581.94;5002477;28;20688;-79
2022/12/08 08:59:02;;;;;;;20.37;15.47;;;;;;;2.00;100.00;100582.56;5003174;28;20270;-72
2022/12/08 09:01:28;;;;;;;22.33;16.57;;;;;;;1.90;100.00;100580.41;5004173;28;20623;-73
2022/12/08 09:03:55;;;;;;;21.97;16.23;;;;;;;1.89;100.00;100581.19;5003196;28;20195;-72
2022/12/08 09:06:21;;;;;;;24.00;17.60;;;;;;;1.90;100.00;100583.81;5007742;28;20183;-73
2022/12/08 09:08:46;;;;;;;23.50;17.40;;;;;;;1.99;100.00;100585.91;5007787;28;20774;-73
2022/12/08 09:11:12;;;;;;;22.97;16.57;;;;;;;2.04;100.00;100579.41;5007262;28;20225;-72
2022/12/08 09:13:37;;;;;;;22.93;16.73;;;;;;;2.03;100.00;100580.22;5008008;28;20210;-72
2022/12/08 09:16:05;;;;;;;23.03;18.13;;;;;;;2.07;100.00;100580.41;5007540;28;20219;-74
2022/12/08 09:18:31;;;;;;;22.27;16.33;;;;;;;2.11;100.00;100579.78;5008544;28;20322;-74
2022/12/08 09:21:03;;;;;;;22.17;15.80;;;;;;;2.11;100.00;100573.88;5007796;28;20329;-74
2022/12/08 09:23:28;;;;;;;23.47;16.50;;;;;;;2.19;100.00;100567.50;5008702;28;20221;-73
2022/12/08 09:25:53;;;;;;;21.00;15.27;;;;;;;2.20;100.00;100574.31;5009374;28;20684;-74
2022/12/08 09:28:19;;;;;;;22.77;15.63;;;;;;;2.24;100.00;100574.53;5009392;28;20679;-73
2022/12/08 09:30:44;;;;;;;23.30;16.03;;;;;;;2.25;100.00;100573.72;5012729;28;20222;-74
2022/12/08 09:33:10;;;;;;;19.70;15.00;;;;;;;2.27;100.00;100581.38;5004308;28;20195;-73
2022/12/08 09:35:35;;;;;;;21.93;16.10;;;;;;;2.32;100.00;100574.88;5014831;28;20194;-73
2022/12/08 09:38:02;;;;;;;22.20;15.77;;;;;;;2.36;100.00;100579.28;5006430;28;20227;-73
2022/12/08 09:40:31;;;;;;;22.50;15.53;;;;;;;2.32;100.00;100577.41;5008753;28;20207;-72
2022/12/08 09:43:24;;;;;;;22.67;16.17;;;;;;;2.33;100.00;100572.44;5005585;28;20218;-73
2022/12/08 09:45:50;;;;;;;22.03;15.77;;;;;;;2.31;100.00;100575.69;5017222;28;20203;-73
2022/12/08 09:48:24;;;;;;;21.70;14.40;;;;;;;2.29;100.00;100570.56;5004609;28;20210;-73
2022/12/08 09:50:57;;;;;;;24.50;16.13;;;;;;;2.29;100.00;100579.81;4992254;28;20238;-73
2022/12/08 09:53:49;;;;;;;21.97;15.27;;;;;;;2.30;100.00;100577.31;5008467;28;20195;-74
2022/12/08 09:56:28;;;;;;;21.43;15.43;;;;;;;2.31;100.00;100571.50;5013001;28;20211;-73
2022/12/08 09:59:05;;;;;;;22.97;16.10;;;;;;;2.31;100.00;100573.16;5007089;28;20241;-74
2022/12/08 10:01:33;;;;;;;22.83;15.47;;;;;;;2.38;100.00;100570.09;5006845;28;20293;-74
2022/12/08 10:03:59;;;;;;;24.93;16.70;;;;;;;2.47;100.00;100570.53;5008937;28;20222;-73
2022/12/08 10:06:45;;;;;;;23.43;16.70;;;;;;;2.57;100.00;100572.72;5008973;28;20191;-73
2022/12/08 10:09:35;;;;;;;18.90;14.43;;;;;;;2.69;100.00;100566.56;5008548;28;20223;-74
2022/12/08 10:12:26;;;;;;;22.63;16.60;;;;;;;2.71;100.00;100567.47;5006244;28;20261;-73
2022/12/08 10:14:58;;;;;;;25.83;15.50;;;;;;;2.71;100.00;100564.13;5009064;28;20187;-73
2022/12/08 10:17:33;;;;;;;24.17;15.43;;;;;;;2.71;100.00;100559.06;5009466;28;20704;-74
2022/12/08 10:20:08;;;;;;;22.63;15.53;;;;;;;2.75;100.00;100563.47;5014721;28;20285;-73
2022/12/08 10:22:34;;;;;;;25.13;15.97;;;;;;;2.76;100.00;100563.50;5007930;28;20194;-73
2022/12/08 10:25:10;;;;;;;20.43;14.87;;;;;;;2.85;100.00;100566.44;5008391;28;20206;-74
2022/12/08 10:27:36;;;;;;;18.77;13.83;;;;;;;2.98;100.00;100563.69;5007675;28;20215;-74
2022/12/08 10:30:17;;;;;;;18.00;12.70;;;;;;;3.02;100.00;100564.66;5007637;28;20194;-74
2022/12/08 10:32:47;;;;;;;19.70;12.23;;;;;;;3.03;100.00;100557.16;5006323;28;20191;-74
2022/12/08 10:35:15;;;;;;;17.33;12.27;;;;;;;3.16;100.00;100566.13;5008922;28;20277;-72
2022/12/08 10:37:40;;;;;;;16.80;11.60;;;;;;;3.24;100.00;100565.69;5007789;28;20672;-73
2022/12/08 10:40:16;;;;;;;14.23;9.60;;;;;;;3.31;100.00;100561.78;5000999;28;20199;-74
2022/12/08 10:42:46;;;;;;;11.63;8.50;;;;;;;3.71;100.00;100573.63;5014225;28;20198;-74
2022/12/08 10:45:14;;;;;;;6.37;5.30;;;;;;;4.69;100.00;100567.47;5005753;28;20199;-73
2022/12/08 10:47:42;;;;;;;7.20;4.87;;;;;;;4.80;98.71;100566.19;5006889;28;20195;-73
2022/12/08 10:50:26;;;;;;;4.30;3.60;;;;;;;4.08;98.14;100570.94;4994770;28;20781;-73
2022/12/08 10:52:57;;;;;;;5.60;4.30;;;;;;;3.84;99.60;100575.00;5002713;28;20206;-73
2022/12/08 10:55:23;;;;;;;5.37;4.07;;;;;;;3.71;99.69;100577.81;5005171;28;20637;-74
2022/12/08 10:57:48;;;;;;;4.77;3.80;;;;;;;3.61;100.00;100575.72;5003155;28;20214;-73
2022/12/08 11:00:25;;;;;;;3.63;2.70;;;;;;;3.48;100.00;100568.41;5004417;28;20707;-72
2022/12/08 11:03:02;;;;;;;3.73;2.70;;;;;;;3.44;100.00;100572.47;5004006;28;20191;-74
2022/12/08 11:05:32;;;;;;;3.47;3.00;;;;;;;3.46;100.00;100577.59;5002323;28;20198;-75
2022/12/08 11:07:58;;;;;;;3.10;2.70;;;;;;;3.38;100.00;100573.88;5007180;28;20206;-74
2022/12/08 11:10:36;;;;;;;2.97;2.10;;;;;;;3.39;100.00;100576.47;5002869;28;20742;-74
2022/12/08 11:13:05;;;;;;;2.73;2.37;;;;;;;3.45;99.51;100578.41;5009197;28;20668;-74
2022/12/08 11:15:37;;;;;;;3.20;2.90;;;;;;;3.49;99.92;100583.66;5012122;28;20715;-73
2022/12/08 11:18:08;;;;;;;3.60;3.30;;;;;;;3.45;99.69;100588.53;5004813;28;20246;-74
2022/12/08 11:20:40;;;;;;;5.40;3.70;;;;;;;3.43;99.83;100591.00;5009281;28;20696;-74
2022/12/08 11:23:18;;;;;;;6.00;5.40;;;;;;;3.40;100.00;100600.13;5001209;28;20195;-73
2022/12/08 11:25:44;;;;;;;7.90;6.70;;;;;;;3.42;100.00;100595.97;5003787;28;20206;-73